Time;durP1;ratioP1;P1;durP2;ratioP2;P2;SDS_P1;SDS_P2;PMS_P1;PMS_P2;Temp;Humidity;BMP_temperature;BMP_pressure;BME280_temperature;BME280_humidity;BME280_pressure;Samples;Min_cycle;Max_cycle;Signal;HPM_P1;HPM_P2
2021/12/03 00:00:14;;;;;;;6.50;4.43;;;1.40;99.90;;;;;;6189645;23;20391;-96
2021/12/03 00:02:42;;;;;;;4.80;4.23;;;1.40;99.90;;;;;;6178346;23;20402;-95
2021/12/03 00:05:09;;;;;;;5.10;4.60;;;1.30;99.90;;;;;;6203937;23;20439;-95
2021/12/03 00:07:41;;;;;;;4.20;3.80;;;1.30;99.90;;;;;;6175309;23;20407;-96
2021/12/03 00:10:26;;;;;;;7.03;3.43;;;1.20;99.90;;;;;;6193537;23;20944;-95
2021/12/03 00:13:00;;;;;;;4.43;3.17;;;1.30;99.90;;;;;;6200554;23;20865;-96
2021/12/03 00:15:27;;;;;;;3.47;2.83;;;1.30;99.90;;;;;;6199077;23;20439;-96
2021/12/03 00:17:54;;;;;;;3.43;3.13;;;1.30;99.90;;;;;;6169771;23;20538;-95
2021/12/03 00:20:22;;;;;;;3.67;3.20;;;1.30;99.90;;;;;;6151717;23;20455;-96
2021/12/03 00:22:52;;;;;;;5.67;3.73;;;1.30;99.90;;;;;;6177022;23;20439;-95
2021/12/03 00:25:30;;;;;;;6.53;4.27;;;1.30;99.90;;;;;;6178208;23;20442;-95
2021/12/03 00:27:56;;;;;;;5.93;3.80;;;1.30;99.90;;;;;;6176244;23;20414;-95
2021/12/03 00:30:22;;;;;;;5.37;3.57;;;1.20;99.90;;;;;;6175464;23;20404;-96
2021/12/03 00:35:36;;;;;;;4.00;3.60;;;1.20;99.90;;;;;;6203825;23;20448;-95
2021/12/03 00:38:02;;;;;;;4.87;3.73;;;1.20;99.90;;;;;;6176684;23;20498;-96
2021/12/03 00:40:31;;;;;;;4.47;3.70;;;1.20;99.90;;;;;;6177741;23;20407;-95
2021/12/03 00:42:58;;;;;;;9.50;4.47;;;1.20;99.90;;;;;;6151032;23;20395;-95
2021/12/03 00:45:26;;;;;;;4.27;3.60;;;1.10;99.90;;;;;;6173502;23;20876;-95
2021/12/03 00:47:52;;;;;;;5.27;3.73;;;1.10;99.90;;;;;;6198570;23;20746;-96
2021/12/03 00:50:23;;;;;;;6.40;4.40;;;1.10;99.90;;;;;;6174775;23;20782;-96
2021/12/03 00:52:51;;;;;;;4.73;3.93;;;1.10;99.90;;;;;;6200515;23;20247;-96
2021/12/03 00:55:19;;;;;;;4.90;3.53;;;1.00;99.90;;;;;;6174129;23;20407;-93
2021/12/03 00:57:46;;;;;;;4.53;3.57;;;1.00;99.90;;;;;;6179907;23;20398;-94
2021/12/03 01:00:16;;;;;;;4.33;3.40;;;0.90;99.90;;;;;;6181522;23;20498;-94
2021/12/03 01:02:43;;;;;;;5.13;3.40;;;0.90;99.90;;;;;;6207669;23;20453;-91
2021/12/03 01:05:09;;;;;;;4.73;3.80;;;0.90;99.90;;;;;;6179239;23;20550;-92
2021/12/03 01:07:36;;;;;;;5.17;3.50;;;0.80;99.90;;;;;;6179858;23;20384;-92
2021/12/03 01:10:10;;;;;;;5.47;3.93;;;0.80;99.90;;;;;;6199680;23;20517;-92
2021/12/03 01:12:37;;;;;;;4.90;4.00;;;0.70;99.90;;;;;;6172982;23;20483;-92
2021/12/03 01:15:06;;;;;;;5.50;4.43;;;0.80;99.90;;;;;;6172493;23;20387;-92
2021/12/03 01:17:32;;;;;;;6.30;4.50;;;0.70;99.90;;;;;;6171386;23;20415;-90
2021/12/03 01:19:59;;;;;;;7.37;5.00;;;0.70;99.90;;;;;;6172583;23;20402;-91
2021/12/03 01:22:25;;;;;;;6.00;4.90;;;0.80;99.90;;;;;;6171451;23;20833;-91
2021/12/03 01:24:51;;;;;;;6.60;4.30;;;0.80;99.90;;;;;;6173903;23;20422;-91
2021/12/03 01:27:17;;;;;;;9.00;4.90;;;0.90;99.90;;;;;;6172851;23;20178;-91
2021/12/03 01:29:42;;;;;;;6.07;4.73;;;0.90;99.90;;;;;;6172253;23;20182;-92
2021/12/03 01:32:08;;;;;;;5.50;4.77;;;0.80;99.90;;;;;;6172222;23;20559;-91
2021/12/03 01:34:36;;;;;;;4.37;3.97;;;0.80;99.90;;;;;;6173394;23;20516;-92
2021/12/03 01:37:02;;;;;;;7.33;5.20;;;0.90;99.90;;;;;;6174015;23;20172;-93
2021/12/03 01:39:28;;;;;;;4.63;4.20;;;0.90;99.90;;;;;;6173120;23;20424;-92
2021/12/03 01:41:54;;;;;;;5.90;3.50;;;0.90;99.90;;;;;;6173187;23;20415;-91
2021/12/03 01:44:21;;;;;;;6.80;4.20;;;0.90;99.90;;;;;;6171815;23;20160;-92
2021/12/03 01:46:47;;;;;;;5.47;4.80;;;0.80;99.90;;;;;;6172945;23;20176;-91
2021/12/03 01:49:22;;;;;;;5.40;4.40;;;0.80;99.90;;;;;;6174370;23;20816;-91
2021/12/03 01:52:02;;;;;;;5.70;4.60;;;0.80;99.90;;;;;;6194891;23;20167;-91
2021/12/03 01:54:31;;;;;;;7.20;5.23;;;0.80;99.90;;;;;;6172780;23;20403;-91
2021/12/03 01:56:57;;;;;;;6.37;4.10;;;0.80;99.90;;;;;;6170681;23;20391;-91
2021/12/03 01:59:23;;;;;;;6.13;4.67;;;0.90;99.90;;;;;;6171725;23;20771;-93
2021/12/03 02:01:50;;;;;;;5.47;4.20;;;0.90;99.90;;;;;;6174548;23;20160;-92
2021/12/03 02:04:37;;;;;;;7.03;4.90;;;0.90;99.90;;;;;;6151057;23;20165;-93
2021/12/03 02:07:21;;;;;;;6.10;4.73;;;0.80;99.90;;;;;;6177063;23;20818;-93
2021/12/03 02:09:54;;;;;;;5.63;4.70;;;0.90;99.90;;;;;;6177010;23;20396;-94
2021/12/03 02:12:22;;;;;;;5.80;4.40;;;1.00;99.90;;;;;;6196957;23;20388;-92
2021/12/03 02:14:47;;;;;;;5.07;4.37;;;1.00;99.90;;;;;;6175213;23;20408;-92
2021/12/03 02:17:13;;;;;;;7.33;5.17;;;1.00;99.90;;;;;;6173043;23;20384;-91
2021/12/03 02:19:40;;;;;;;6.67;5.10;;;1.00;99.90;;;;;;6174852;23;20500;-91
2021/12/03 02:22:05;;;;;;;6.63;5.80;;;1.00;99.90;;;;;;6174669;23;20868;-91
2021/12/03 02:24:31;;;;;;;6.40;5.20;;;1.00;99.90;;;;;;6174053;23;20983;-91
2021/12/03 02:26:57;;;;;;;6.20;4.80;;;1.00;99.90;;;;;;6177487;23;20186;-91
2021/12/03 02:29:23;;;;;;;8.90;5.73;;;0.90;99.90;;;;;;6174787;23;20192;-91
2021/12/03 02:31:49;;;;;;;6.10;5.03;;;0.80;99.90;;;;;;6175789;23;20176;-92
2021/12/03 02:34:23;;;;;;;6.93;5.50;;;0.80;99.90;;;;;;6200842;23;20696;-92
2021/12/03 02:36:51;;;;;;;9.43;4.97;;;0.70;99.90;;;;;;6174910;23;20871;-93
2021/12/03 02:42:32;;;;;;;7.27;5.80;;;0.70;99.90;;;;;;6201243;23;20377;-92
2021/12/03 02:44:58;;;;;;;6.37;4.80;;;0.50;99.90;;;;;;6176505;23;20433;-93
2021/12/03 02:47:25;;;;;;;5.63;4.93;;;0.50;99.90;;;;;;6176533;23;20692;-94
2021/12/03 02:49:51;;;;;;;6.83;5.37;;;0.40;99.90;;;;;;6174823;23;20158;-95
2021/12/03 02:52:16;;;;;;;11.60;6.10;;;0.50;99.90;;;;;;6174423;23;20431;-95
2021/12/03 02:54:42;;;;;;;9.27;5.80;;;0.50;99.90;;;;;;6179044;23;20176;-96
2021/12/03 03:00:25;;;;;;;7.00;5.50;;;0.60;99.90;;;;;;6203536;23;21117;-95
2021/12/03 03:02:53;;;;;;;7.83;6.50;;;0.70;99.90;;;;;;6176442;23;20396;-95
2021/12/03 03:05:28;;;;;;;10.47;6.50;;;0.80;99.90;;;;;;6153450;23;20697;-95
2021/12/03 03:07:56;;;;;;;7.67;6.00;;;0.80;99.90;;;;;;6203858;23;20423;-95
2021/12/03 03:10:41;;;;;;;7.20;5.80;;;0.70;99.90;;;;;;6179012;23;20406;-95
2021/12/03 03:13:08;;;;;;;7.67;6.07;;;0.60;99.90;;;;;;6157240;23;20458;-96
2021/12/03 03:16:02;;;;;;;7.57;5.97;;;0.60;99.90;;;;;;6151431;23;20401;-95
2021/12/03 03:18:47;;;;;;;10.50;7.23;;;0.40;99.90;;;;;;6203767;23;20419;-96
2021/12/03 03:21:16;;;;;;;6.43;5.70;;;0.30;99.90;;;;;;6176785;23;20395;-94
2021/12/03 03:23:44;;;;;;;8.30;5.73;;;0.30;99.90;;;;;;6184958;23;20407;-94
2021/12/03 03:26:11;;;;;;;9.40;6.73;;;0.30;99.90;;;;;;6183207;23;20445;-94
2021/12/03 03:28:37;;;;;;;9.83;6.83;;;0.40;99.90;;;;;;6177158;23;20410;-94
2021/12/03 03:31:07;;;;;;;8.80;6.20;;;0.40;99.90;;;;;;6175393;23;20396;-94
2021/12/03 03:33:36;;;;;;;9.57;6.87;;;0.30;99.90;;;;;;6189854;23;20441;-94
2021/12/03 03:36:08;;;;;;;9.10;6.70;;;0.30;99.90;;;;;;6181603;23;20391;-95
2021/12/03 03:38:34;;;;;;;9.40;6.10;;;0.40;99.90;;;;;;6185000;23;20468;-95
2021/12/03 03:41:00;;;;;;;8.77;6.50;;;0.50;99.90;;;;;;6186986;23;20899;-95
2021/12/03 03:43:26;;;;;;;8.87;6.80;;;0.40;99.90;;;;;;6180143;23;20413;-95
2021/12/03 03:45:55;;;;;;;9.73;6.30;;;0.50;99.90;;;;;;6205307;23;20444;-94
2021/12/03 03:48:44;;;;;;;9.10;6.10;;;0.50;99.90;;;;;;6206723;23;20403;-94
2021/12/03 03:51:10;;;;;;;9.70;6.50;;;0.60;99.90;;;;;;6178563;23;20427;-93
2021/12/03 03:53:39;;;;;;;7.63;5.47;;;0.60;99.90;;;;;;6177339;23;20758;-93
2021/12/03 03:56:06;;;;;;;7.37;6.53;;;0.60;99.90;;;;;;6178637;23;20430;-92
2021/12/03 03:58:32;;;;;;;7.30;6.07;;;0.50;99.90;;;;;;6177635;23;20403;-93
2021/12/03 04:00:58;;;;;;;9.13;6.50;;;0.70;99.90;;;;;;6174940;23;20394;-93
2021/12/03 04:03:30;;;;;;;8.80;6.50;;;0.80;99.90;;;;;;6175860;23;20406;-92
2021/12/03 04:06:01;;;;;;;10.10;6.10;;;0.90;99.90;;;;;;6177301;23;20443;-93
2021/12/03 04:08:29;;;;;;;8.23;6.57;;;1.00;99.90;;;;;;6176785;23;20442;-93
2021/12/03 04:10:57;;;;;;;8.27;6.60;;;1.00;99.90;;;;;;6177219;23;20422;-93
2021/12/03 04:13:27;;;;;;;7.60;5.70;;;1.10;99.90;;;;;;6203256;23;20875;-94
2021/12/03 04:16:01;;;;;;;6.07;4.20;;;1.10;99.90;;;;;;6149469;23;20398;-93
2021/12/03 04:19:06;;;;;;;9.00;6.33;;;1.10;99.90;;;;;;6178665;23;20456;-95
2021/12/03 04:21:56;;;;;;;6.80;6.00;;;1.10;99.90;;;;;;6171533;23;20402;-94
2021/12/03 04:24:35;;;;;;;11.73;7.53;;;1.10;99.90;;;;;;6178593;23;20417;-93
2021/12/03 04:27:11;;;;;;;8.57;6.60;;;1.10;99.90;;;;;;6204898;23;20477;-93
2021/12/03 04:29:38;;;;;;;8.57;6.23;;;1.10;99.90;;;;;;6202831;23;20493;-93
2021/12/03 04:32:08;;;;;;;9.60;7.40;;;1.10;99.90;;;;;;6178344;23;20915;-95
2021/12/03 04:34:37;;;;;;;8.60;6.90;;;1.10;99.90;;;;;;6179205;23;20412;-95
2021/12/03 04:37:18;;;;;;;10.40;6.67;;;1.10;99.90;;;;;;6174892;23;20402;-95
2021/12/03 04:39:45;;;;;;;11.50;7.10;;;1.10;99.90;;;;;;6174584;23;20402;-96
2021/12/03 04:42:11;;;;;;;9.17;6.90;;;1.20;99.90;;;;;;6202218;23;20160;-93
2021/12/03 04:44:38;;;;;;;8.87;6.10;;;1.20;99.90;;;;;;6175998;23;20479;-94
2021/12/03 04:47:04;;;;;;;9.50;6.50;;;1.20;99.90;;;;;;6173988;23;20192;-91
2021/12/03 04:49:31;;;;;;;7.60;5.50;;;1.20;99.90;;;;;;6202516;23;20387;-94
2021/12/03 04:51:57;;;;;;;8.87;6.17;;;1.30;99.90;;;;;;6204312;23;20402;-93
2021/12/03 04:54:26;;;;;;;7.80;6.07;;;1.30;99.90;;;;;;6152757;23;20400;-93
2021/12/03 04:56:54;;;;;;;9.67;6.90;;;1.30;99.90;;;;;;6206305;23;20167;-93
2021/12/03 04:59:19;;;;;;;7.40;6.30;;;1.20;99.90;;;;;;6177498;23;20400;-95
2021/12/03 05:01:45;;;;;;;9.00;6.83;;;1.30;99.90;;;;;;6176591;23;20445;-95
2021/12/03 05:04:11;;;;;;;9.07;6.40;;;1.30;99.90;;;;;;6176827;23;20160;-94
2021/12/03 05:07:05;;;;;;;9.13;6.50;;;1.30;99.90;;;;;;6151717;23;20292;-94
2021/12/03 05:09:31;;;;;;;7.83;6.10;;;1.30;99.90;;;;;;6178442;23;21325;-95
2021/12/03 05:11:58;;;;;;;8.93;7.20;;;1.30;99.90;;;;;;6173198;23;20506;-94
2021/12/03 05:14:24;;;;;;;9.47;7.07;;;1.20;99.90;;;;;;6176494;23;20470;-94
2021/12/03 05:16:56;;;;;;;9.00;7.00;;;1.20;99.90;;;;;;6176304;23;20462;-95
2021/12/03 05:19:22;;;;;;;9.00;6.90;;;1.20;99.90;;;;;;6174923;23;20164;-93
2021/12/03 05:21:49;;;;;;;6.70;6.00;;;1.20;99.90;;;;;;6175598;23;20949;-94
2021/12/03 05:24:16;;;;;;;6.17;5.30;;;1.10;99.90;;;;;;6202033;23;20391;-92
2021/12/03 05:26:44;;;;;;;6.57;5.93;;;1.20;99.90;;;;;;6176754;23;20445;-94
2021/12/03 05:31:44;;;;;;;6.67;5.20;;;1.30;99.90;;;;;;6203465;23;20397;-92
2021/12/03 05:37:21;;;;;;;7.20;6.13;;;1.30;99.90;;;;;;6201351;23;20810;-94
2021/12/03 05:39:49;;;;;;;8.63;5.60;;;1.20;99.90;;;;;;6150878;23;20449;-93
2021/12/03 05:42:16;;;;;;;6.57;5.03;;;1.30;99.90;;;;;;6180444;23;20413;-91
2021/12/03 05:44:42;;;;;;;7.87;5.87;;;1.30;99.90;;;;;;6174146;23;20396;-91
2021/12/03 05:47:08;;;;;;;5.07;4.57;;;1.30;99.90;;;;;;6174216;23;20604;-89
2021/12/03 05:49:34;;;;;;;4.90;4.37;;;1.30;99.90;;;;;;6173139;23;20211;-90
2021/12/03 05:51:59;;;;;;;7.47;5.30;;;1.30;99.90;;;;;;6174428;23;20403;-90
2021/12/03 05:54:27;;;;;;;6.43;5.73;;;1.30;99.90;;;;;;6173401;23;20165;-90
2021/12/03 05:56:53;;;;;;;6.80;5.20;;;1.30;99.90;;;;;;6175284;23;20161;-89
2021/12/03 05:59:18;;;;;;;5.67;4.90;;;1.30;99.90;;;;;;6174996;23;20447;-89
2021/12/03 06:01:44;;;;;;;7.27;4.67;;;1.30;99.90;;;;;;6175084;23;20418;-89
2021/12/03 06:04:10;;;;;;;5.70;5.00;;;1.30;99.90;;;;;;6175675;23;20466;-92
2021/12/03 06:06:36;;;;;;;5.70;4.53;;;1.30;99.90;;;;;;6176452;23;20451;-92
2021/12/03 06:09:03;;;;;;;5.20;4.70;;;1.30;99.90;;;;;;6176735;23;20997;-90
2021/12/03 06:11:29;;;;;;;6.10;5.50;;;1.30;99.90;;;;;;6175853;23;20169;-91
2021/12/03 06:13:54;;;;;;;6.57;5.47;;;1.30;99.90;;;;;;6175787;23;20885;-91
2021/12/03 06:16:20;;;;;;;7.37;5.43;;;1.30;99.90;;;;;;6176144;23;20161;-91
2021/12/03 06:18:46;;;;;;;6.50;5.80;;;1.30;99.90;;;;;;6176795;23;20164;-89
2021/12/03 06:21:14;;;;;;;6.67;5.73;;;1.30;99.90;;;;;;6176127;23;20541;-88
2021/12/03 06:23:40;;;;;;;6.60;5.87;;;1.30;99.90;;;;;;6175868;23;20398;-88
2021/12/03 06:26:08;;;;;;;6.97;5.07;;;1.30;99.90;;;;;;6175704;23;20445;-89
2021/12/03 06:28:36;;;;;;;5.73;5.07;;;1.30;99.90;;;;;;6174968;23;20182;-88
2021/12/03 06:31:02;;;;;;;7.57;5.53;;;1.30;99.90;;;;;;6176321;23;20527;-89
2021/12/03 06:33:28;;;;;;;6.63;5.50;;;1.30;99.90;;;;;;6174455;23;20823;-93
2021/12/03 06:35:53;;;;;;;5.73;5.20;;;1.30;99.90;;;;;;6162717;23;20501;-91
2021/12/03 06:38:20;;;;;;;6.00;5.37;;;1.30;99.90;;;;;;6162130;23;20165;-90
2021/12/03 06:40:47;;;;;;;5.93;4.73;;;1.30;99.90;;;;;;6166999;23;20164;-90
2021/12/03 06:43:13;;;;;;;6.40;5.40;;;1.30;99.90;;;;;;6166550;23;20396;-91
2021/12/03 06:45:39;;;;;;;6.00;5.40;;;1.30;99.90;;;;;;6169385;23;20997;-93
2021/12/03 06:48:05;;;;;;;5.60;5.10;;;1.20;99.90;;;;;;6168754;23;20168;-90
2021/12/03 06:50:32;;;;;;;6.03;5.43;;;1.30;99.90;;;;;;6165519;23;20420;-90
2021/12/03 06:53:02;;;;;;;8.67;5.47;;;1.20;99.90;;;;;;6165210;23;20515;-93
2021/12/03 06:55:28;;;;;;;7.73;5.40;;;1.10;99.90;;;;;;6167398;23;20410;-92
2021/12/03 06:57:54;;;;;;;7.13;4.33;;;1.20;99.90;;;;;;6172258;23;20400;-93
2021/12/03 07:00:22;;;;;;;4.90;4.13;;;1.10;99.90;;;;;;6170938;23;20450;-92
2021/12/03 07:02:51;;;;;;;5.80;4.63;;;1.10;99.90;;;;;;6172700;23;20478;-91
2021/12/03 07:05:25;;;;;;;6.13;4.37;;;1.00;99.90;;;;;;6180365;23;20441;-91
2021/12/03 07:07:59;;;;;;;5.73;5.10;;;1.00;99.90;;;;;;6201094;23;20878;-91
2021/12/03 07:10:24;;;;;;;6.20;4.77;;;0.90;99.90;;;;;;6148028;23;20391;-91
2021/12/03 07:12:50;;;;;;;7.10;4.90;;;0.90;99.90;;;;;;6169826;23;20474;-91
2021/12/03 07:15:16;;;;;;;5.63;5.00;;;0.70;99.90;;;;;;6170415;23;20414;-89
2021/12/03 07:17:42;;;;;;;5.87;4.93;;;0.70;99.90;;;;;;6170483;23;20167;-91
2021/12/03 07:20:09;;;;;;;5.93;5.03;;;0.60;99.90;;;;;;6169171;23;20507;-93
2021/12/03 07:22:35;;;;;;;7.60;5.17;;;0.70;99.90;;;;;;6172148;23;20247;-90
2021/12/03 07:25:01;;;;;;;7.10;5.50;;;0.70;99.90;;;;;;6174610;23;20439;-95
2021/12/03 07:27:27;;;;;;;5.87;4.97;;;0.60;99.90;;;;;;6174514;23;20529;-94
2021/12/03 07:29:53;;;;;;;6.60;5.47;;;0.50;99.90;;;;;;6171102;23;20835;-90
2021/12/03 07:32:21;;;;;;;8.33;5.53;;;0.50;99.90;;;;;;6164397;23;20175;-91
2021/12/03 07:34:47;;;;;;;6.70;5.37;;;0.40;99.90;;;;;;6169641;23;20169;-91
2021/12/03 07:37:13;;;;;;;6.57;5.40;;;0.50;99.90;;;;;;6166728;23;20404;-90
2021/12/03 07:39:40;;;;;;;6.80;5.77;;;0.40;99.90;;;;;;6171051;23;20399;-91
2021/12/03 07:42:06;;;;;;;7.10;5.80;;;0.40;99.90;;;;;;6166945;23;20406;-93
2021/12/03 07:44:33;;;;;;;8.20;6.17;;;0.40;99.90;;;;;;6170767;23;20421;-91
2021/12/03 07:47:00;;;;;;;8.10;5.90;;;0.50;99.90;;;;;;6169214;23;20403;-92
2021/12/03 07:49:26;;;;;;;6.80;5.70;;;0.40;99.90;;;;;;6167444;23;20386;-90
2021/12/03 07:51:52;;;;;;;6.70;5.60;;;0.40;99.90;;;;;;6169510;23;21021;-89
2021/12/03 07:54:19;;;;;;;9.37;6.67;;;0.50;99.90;;;;;;6168435;23;20394;-89
2021/12/03 07:56:45;;;;;;;8.90;6.50;;;0.50;99.90;;;;;;6168076;23;20406;-90
2021/12/03 07:59:12;;;;;;;10.63;6.80;;;0.60;99.90;;;;;;6170726;23;20403;-91
2021/12/03 08:01:41;;;;;;;11.97;8.13;;;0.60;99.90;;;;;;6144343;23;20873;-90
2021/12/03 08:04:07;;;;;;;8.67;6.60;;;0.70;99.90;;;;;;6168935;23;20490;-92
2021/12/03 08:06:34;;;;;;;7.03;5.90;;;0.80;99.90;;;;;;6168683;23;21158;-90
2021/12/03 08:08:59;;;;;;;7.80;5.53;;;0.70;99.90;;;;;;6169568;23;20168;-94
2021/12/03 08:11:25;;;;;;;9.10;7.37;;;0.90;99.90;;;;;;6168560;23;20820;-92
2021/12/03 08:13:51;;;;;;;10.40;7.23;;;0.90;99.90;;;;;;6170680;23;20168;-92
2021/12/03 08:16:16;;;;;;;14.90;7.90;;;1.00;99.90;;;;;;6168741;23;20180;-93
2021/12/03 08:18:42;;;;;;;12.97;7.70;;;1.20;99.90;;;;;;6169660;23;20172;-92
2021/12/03 08:21:08;;;;;;;8.40;6.87;;;1.30;99.90;;;;;;6173112;23;20169;-95
2021/12/03 08:23:34;;;;;;;12.23;6.97;;;1.30;99.90;;;;;;6198871;23;20300;-95
2021/12/03 08:26:00;;;;;;;8.00;7.13;;;1.70;99.90;;;;;;6172247;23;20524;-95
2021/12/03 08:28:26;;;;;;;7.33;6.20;;;2.30;99.90;;;;;;6151087;23;20193;-93
2021/12/03 08:30:53;;;;;;;6.40;5.80;;;2.80;99.90;;;;;;6171095;23;20332;-93
2021/12/03 08:33:18;;;;;;;7.00;6.03;;;3.10;99.90;;;;;;6167976;23;20167;-93
2021/12/03 08:35:44;;;;;;;7.30;5.27;;;3.30;99.90;;;;;;6170182;23;20416;-91
2021/12/03 08:38:10;;;;;;;5.70;5.17;;;3.10;99.90;;;;;;6172198;23;20168;-96
2021/12/03 08:40:39;;;;;;;8.07;5.03;;;3.20;99.90;;;;;;6167577;23;20460;-95
2021/12/03 08:43:05;;;;;;;10.13;6.10;;;3.40;99.90;;;;;;6197844;23;20182;-91
2021/12/03 08:45:30;;;;;;;6.93;5.33;;;3.40;99.90;;;;;;6167508;23;20790;-91
2021/12/03 08:48:00;;;;;;;8.60;4.63;;;3.50;99.90;;;;;;6165362;23;20170;-91
2021/12/03 08:50:32;;;;;;;7.37;5.13;;;3.60;99.90;;;;;;6165574;23;20173;-93
2021/12/03 08:55:55;;;;;;;6.13;5.53;;;3.60;99.90;;;;;;6094242;23;20397;-90
2021/12/03 08:58:22;;;;;;;9.40;6.30;;;3.70;99.90;;;;;;6167307;23;20477;-92
2021/12/03 09:00:49;;;;;;;5.33;4.60;;;3.80;99.90;;;;;;6168662;23;20178;-92
2021/12/03 09:03:38;;;;;;;4.93;4.43;;;3.60;99.90;;;;;;6171839;23;20430;-95
2021/12/03 09:06:04;;;;;;;6.30;4.33;;;3.60;99.90;;;;;;6173141;23;20485;-93
2021/12/03 09:08:31;;;;;;;4.77;3.63;;;3.90;99.90;;;;;;6148740;23;20412;-92
2021/12/03 09:10:58;;;;;;;5.83;4.83;;;4.40;99.90;;;;;;6170518;23;21273;-95
2021/12/03 09:13:23;;;;;;;5.20;4.13;;;4.40;99.90;;;;;;6171729;23;20469;-90
2021/12/03 09:16:05;;;;;;;4.50;4.10;;;5.00;99.90;;;;;;6195805;23;20477;-91
2021/12/03 09:18:34;;;;;;;6.97;4.50;;;5.10;99.90;;;;;;6196484;23;20369;-92
2021/12/03 09:23:42;;;;;;;6.80;4.77;;;4.30;99.90;;;;;;6196275;23;20589;-95
2021/12/03 09:26:15;;;;;;;5.83;5.23;;;4.10;99.90;;;;;;6171175;23;20264;-91
2021/12/03 09:28:46;;;;;;;7.70;5.50;;;4.40;99.90;;;;;;6170143;23;20419;-93
2021/12/03 09:31:15;;;;;;;4.83;4.40;;;4.60;99.90;;;;;;6169511;23;20405;-93
2021/12/03 09:33:44;;;;;;;4.40;4.00;;;4.90;99.90;;;;;;6167384;23;20470;-94
2021/12/03 09:36:10;;;;;;;3.60;3.30;;;5.10;99.90;;;;;;6169263;23;20404;-93
2021/12/03 09:38:37;;;;;;;4.17;3.50;;;5.40;99.90;;;;;;6168916;23;20390;-91
2021/12/03 09:41:15;;;;;;;4.10;3.70;;;5.20;99.90;;;;;;6167218;23;20394;-90
2021/12/03 09:43:50;;;;;;;4.13;3.60;;;4.90;99.90;;;;;;6149680;23;20455;-92
2021/12/03 09:46:23;;;;;;;4.83;3.63;;;4.60;99.90;;;;;;6169708;23;20457;-92
2021/12/03 09:51:40;;;;;;;5.33;4.93;;;5.20;99.90;;;;;;6192226;23;20857;-91
2021/12/03 09:57:06;;;;;;;4.10;3.80;;;4.30;99.90;;;;;;6194876;23;20390;-95
2021/12/03 10:05:38;;;;;;;5.10;4.60;;;3.30;99.90;;;;;;6169394;23;20403;-88
2021/12/03 10:16:17;;;;;;;6.70;5.30;;;4.80;99.90;;;;;;6173817;23;20406;-95
2021/12/03 10:18:46;;;;;;;3.60;3.30;;;5.50;99.90;;;;;;6210285;23;20396;-96
2021/12/03 10:29:26;;;;;;;4.67;3.50;;;6.70;97.60;;;;;;6201705;23;20184;-96
2021/12/03 10:37:42;;;;;;;4.53;2.70;;;7.50;95.50;;;;;;6213944;23;20428;-96
2021/12/03 10:41:07;;;;;;;3.03;2.50;;;8.50;93.60;;;;;;6188369;23;20393;-96
2021/12/03 11:05:57;;;;;;;5.23;3.30;;;9.30;90.70;;;;;;6194990;23;20552;-96
2021/12/03 11:08:40;;;;;;;3.67;3.37;;;10.20;87.60;;;;;;6204491;23;20888;-94
2021/12/03 11:11:53;;;;;;;2.80;2.60;;;11.00;85.70;;;;;;6217243;23;20402;-95
2021/12/03 11:34:39;;;;;;;3.93;2.90;;;11.50;75.90;;;;;;6199760;23;20401;-93
2021/12/03 13:25:05;;;;;;;2.60;2.10;;;8.60;85.90;;;;;;6197730;23;20745;-91
2021/12/03 13:27:56;;;;;;;2.73;2.20;;;8.40;84.80;;;;;;6193268;23;20485;-87
2021/12/03 14:39:04;;;;;;;2.30;1.63;;;4.20;96.10;;;;;;6194505;23;21170;-87
2021/12/03 14:47:31;;;;;;;1.90;1.80;;;4.00;96.80;;;;;;6189341;23;20535;-85
2021/12/03 14:53:57;;;;;;;4.73;2.00;;;4.00;97.10;;;;;;6100008;23;20508;-83
2021/12/03 14:56:10;;;;;;;2.23;2.03;;;4.00;97.20;;;;;;6151383;23;21442;-85
2021/12/03 15:04:03;;;;;;;3.60;2.30;;;3.90;97.50;;;;;;6192129;23;20427;-84
2021/12/03 15:09:10;;;;;;;2.40;2.20;;;3.80;97.80;;;;;;6193379;23;20415;-85
2021/12/03 15:22:25;;;;;;;2.13;1.60;;;3.60;98.50;;;;;;6192745;23;20895;-86
2021/12/03 15:27:58;;;;;;;2.33;1.70;;;3.40;98.50;;;;;;6174304;23;20855;-86
2021/12/03 15:55:34;;;;;;;2.60;2.40;;;3.50;98.70;;;;;;6194265;23;20387;-86
2021/12/03 16:08:26;;;;;;;6.70;4.00;;;3.20;99.50;;;;;;6193687;23;20480;-87
2021/12/03 16:49:29;;;;;;;4.70;3.57;;;2.80;99.90;;;;;;6196027;23;20882;-90
2021/12/03 16:51:41;;;;;;;3.80;3.07;;;2.80;99.70;;;;;;6194440;23;20708;-88
2021/12/03 16:54:12;;;;;;;9.73;5.33;;;2.80;99.50;;;;;;6168226;23;20744;-88
2021/12/03 16:56:50;;;;;;;7.93;6.53;;;2.80;99.60;;;;;;6170404;23;20616;-90
2021/12/03 16:59:16;;;;;;;5.00;3.00;;;2.80;99.90;;;;;;6169529;23;20418;-91
2021/12/03 17:50:40;;;;;;;20.13;17.87;;;2.40;99.90;;;;;;6103101;23;20389;-90
2021/12/03 17:58:35;;;;;;;15.33;11.13;;;2.30;99.90;;;;;;6191319;23;20720;-88
2021/12/03 18:01:08;;;;;;;12.73;10.93;;;2.30;99.90;;;;;;6167983;23;20482;-88
2021/12/03 18:46:38;;;;;;;10.83;9.00;;;2.20;99.90;;;;;;6194883;23;20476;-89
2021/12/03 18:56:52;;;;;;;6.30;5.00;;;2.40;99.90;;;;;;6194805;23;20736;-91
2021/12/03 18:59:18;;;;;;;5.40;4.37;;;2.50;99.90;;;;;;6166620;23;20430;-90
2021/12/03 19:01:45;;;;;;;4.70;4.00;;;2.50;99.90;;;;;;6167548;23;21239;-87
2021/12/03 19:04:19;;;;;;;6.67;5.20;;;2.60;99.60;;;;;;6167254;23;20777;-88
2021/12/03 19:09:15;;;;;;;6.80;5.33;;;2.60;99.60;;;;;;6197998;23;20412;-88
2021/12/03 19:11:59;;;;;;;7.20;4.73;;;2.60;99.30;;;;;;6169927;23;20944;-87
2021/12/03 19:14:30;;;;;;;4.40;4.00;;;2.50;99.70;;;;;;6170820;23;20430;-88
2021/12/03 19:17:02;;;;;;;4.67;3.93;;;2.50;99.90;;;;;;6169825;23;20424;-89
2021/12/03 19:19:30;;;;;;;7.20;4.67;;;2.50;99.80;;;;;;6171725;23;20482;-89
2021/12/03 19:21:58;;;;;;;6.57;5.07;;;2.50;99.90;;;;;;6171201;23;20399;-89
2021/12/03 19:24:26;;;;;;;4.83;3.60;;;2.60;99.90;;;;;;6169593;23;20514;-90
2021/12/03 19:26:52;;;;;;;5.07;3.83;;;2.60;99.90;;;;;;6171433;23;20446;-90
2021/12/03 19:29:20;;;;;;;6.30;4.33;;;2.60;99.90;;;;;;6170036;23;20411;-89
2021/12/03 19:31:48;;;;;;;5.10;4.60;;;2.60;99.90;;;;;;6171818;23;20407;-90
2021/12/03 19:34:14;;;;;;;8.43;5.77;;;2.70;99.90;;;;;;6168798;23;20402;-88
2021/12/03 19:36:43;;;;;;;18.73;11.27;;;2.80;99.90;;;;;;6169576;23;20403;-88
2021/12/03 19:39:31;;;;;;;20.63;13.30;;;2.80;99.90;;;;;;6170864;23;20406;-89
2021/12/03 19:47:01;;;;;;;11.27;8.20;;;2.80;99.90;;;;;;6198310;23;20524;-90
2021/12/03 19:52:13;;;;;;;8.80;6.40;;;2.80;99.90;;;;;;6194894;23;20744;-89
2021/12/03 19:54:41;;;;;;;6.20;5.60;;;2.70;99.90;;;;;;6168109;23;20401;-89
2021/12/03 19:57:06;;;;;;;6.50;5.03;;;2.70;99.90;;;;;;6170587;23;20406;-93
2021/12/03 19:59:32;;;;;;;6.10;4.87;;;2.60;99.90;;;;;;6172626;23;20407;-90
2021/12/03 20:01:59;;;;;;;6.10;4.93;;;2.60;99.90;;;;;;6171425;23;20606;-91
2021/12/03 20:04:25;;;;;;;19.97;15.97;;;2.70;99.90;;;;;;6168557;23;20175;-89
2021/12/03 20:06:51;;;;;;;12.80;10.80;;;2.70;99.90;;;;;;6170490;23;20446;-89
2021/12/03 20:09:20;;;;;;;8.10;7.33;;;2.80;99.90;;;;;;6169317;23;20167;-90
2021/12/03 20:11:52;;;;;;;8.53;7.50;;;2.80;99.60;;;;;;6170000;23;20167;-90
2021/12/03 20:14:20;;;;;;;6.23;5.00;;;2.70;99.50;;;;;;6169112;23;20750;-89
2021/12/03 20:19:34;;;;;;;7.37;4.80;;;2.90;99.50;;;;;;6192951;23;20452;-90
2021/12/03 20:22:11;;;;;;;6.43;4.60;;;2.80;99.40;;;;;;6169412;23;20802;-89
2021/12/03 20:27:12;;;;;;;10.13;6.33;;;2.80;99.80;;;;;;6198302;23;20452;-89
2021/12/03 20:37:26;;;;;;;9.40;6.87;;;2.70;99.90;;;;;;6195188;23;20387;-87
2021/12/03 20:39:56;;;;;;;10.07;6.77;;;2.70;99.90;;;;;;6167298;23;20170;-88
2021/12/03 20:42:30;;;;;;;6.80;5.77;;;2.70;99.90;;;;;;6167526;23;20404;-87
2021/12/03 21:09:56;;;;;;;8.50;6.17;;;2.60;99.90;;;;;;6195764;23;20473;-87
2021/12/03 21:12:25;;;;;;;7.90;7.10;;;2.60;99.90;;;;;;6167338;23;20713;-87
2021/12/03 21:15:15;;;;;;;9.67;6.80;;;2.60;99.90;;;;;;6166704;23;20397;-87
2021/12/03 21:20:26;;;;;;;7.77;5.80;;;2.80;99.90;;;;;;6194212;23;20395;-87
2021/12/03 21:23:06;;;;;;;6.77;4.90;;;2.80;99.90;;;;;;6168244;23;20730;-87
2021/12/03 21:25:34;;;;;;;5.10;3.93;;;2.80;99.90;;;;;;6170975;23;20518;-88
2021/12/03 21:28:17;;;;;;;5.70;4.50;;;2.90;99.90;;;;;;6168579;23;20755;-88
2021/12/03 21:30:55;;;;;;;6.13;4.23;;;2.90;99.90;;;;;;6164217;23;20387;-87
2021/12/03 21:33:39;;;;;;;9.13;4.43;;;3.00;99.80;;;;;;6165820;23;20718;-89
2021/12/03 21:41:31;;;;;;;;;;;;;;;;;;;;;
2021/12/03 21:44:04;;;;;;;4.17;3.77;;;3.10;99.50;;;;;;6194669;23;20174;-87
2021/12/03 21:46:36;;;;;;;4.83;4.27;;;3.10;99.40;;;;;;6169083;23;20442;-87
2021/12/03 21:49:05;;;;;;;5.87;4.37;;;3.20;99.30;;;;;;6142739;23;20399;-87
2021/12/03 21:51:31;;;;;;;5.50;4.73;;;3.20;99.60;;;;;;6193985;23;20395;-88
2021/12/03 21:53:57;;;;;;;6.10;5.10;;;3.20;99.80;;;;;;6142571;23;20777;-87
2021/12/03 21:56:23;;;;;;;8.10;4.90;;;3.20;99.90;;;;;;6169997;23;20396;-86
2021/12/03 21:58:53;;;;;;;6.43;4.90;;;3.10;99.90;;;;;;6169942;23;20709;-86
2021/12/03 22:01:25;;;;;;;4.90;4.40;;;3.20;99.90;;;;;;6171925;23;20391;-86
2021/12/03 22:03:51;;;;;;;5.47;4.57;;;3.20;99.90;;;;;;6168039;23;20945;-87
2021/12/03 22:06:19;;;;;;;5.60;4.40;;;3.20;99.40;;;;;;6166161;23;20570;-86
2021/12/03 22:08:48;;;;;;;4.47;4.03;;;3.20;99.50;;;;;;6159517;23;20167;-87